Tiempo atmosférico en la estación meteorológica de El Pinar, Depósito, Santa Cruz de Tenerife (948 m.)



Fecha
DESCASC
Temp. máxima en grados centígrados (hora)
DESCASC
Temp. mínima en grados centígrados (hora)
DESCASC
Temp. media en grados centígrados
DESCASC
Racha de viento máxima en m/sg (hora)
DESCASC
Velocidad máxima media en intervalos de 10 minutos(hora)
DESCASC
Precipitaciones diarias en mm
DESCASC
Precipitaciones de 00:00 a 06:00 en mm
DESCASC
Precipitaciones de 06:00 a 12:00 en mm
DESCASC
Precipitaciones de 12:00 a 18:00 en mm
DESCASC
Precipitaciones de 18:00 a 24:00 en mm
DESCASC
19-04-2018 17.5 (12:10) 10.2 (22:40) 13.8 -- (--) -- (--) -- 0 -- 0 0
18-04-2018 25.9 (16:10) 10.5 (07:40) 18.2 8.61 (23:59) 3.89 (23:30) 0 0 0 0 0
17-04-2018 21.9 (16:50) 8.2 (04:30) 15 5.83 (15:20) 2.78 (16:20) 0 0 0 0 0
16-04-2018 18.2 (14:20) 8.3 (08:00) 13.3 5 (12:40) 2.78 (14:40) 0 0 0 0 0
15-04-2018 17.4 (18:20) 9.8 (00:00) 13.6 6.39 (03:40) 3.06 (11:30) 0 0 0 0 0
14-04-2018 16.7 (16:50) 7.7 (00:00) 12.2 9.17 (16:50) 4.17 (16:30) 0 0 0 0 0
13-04-2018 14 (16:00) 8.8 (00:00) 11.4 11.94 (06:00) 5 (03:00) 0.8 0.8 0 0 0
12-04-2018 16.2 (15:10) 10.4 (00:00) 13.3 13.33 (23:50) 5 (23:59) 0 0 0 0 0
11-04-2018 18.8 (15:10) 8.7 (00:00) 13.7 12.5 (18:30) 5 (18:40) 0 0 0 0 0
10-04-2018 14.1 (17:10) 8.3 (00:00) 11.2 14.72 (06:00) 5.28 (08:50) 0 0 0 0 0
09-04-2018 14.5 (14:00) 8.3 (00:00) 11.4 15.28 (17:00) 6.11 (13:10) 1.4 1.4 0 0 0
08-04-2018 14.8 (16:50) 8.2 (00:00) 11.5 15 (20:50) 6.11 (20:50) 0.4 0 0 0.2 0.2
07-04-2018 14 (16:40) 9.1 (00:00) 11.6 10.28 (18:10) 3.61 (06:00) 1.8 1 0.8 0 0
06-04-2018 16.7 (14:20) 6.4 (00:00) 11.6 10 (23:20) 4.17 (19:10) 0.6 0 0 0.4 0.2
05-04-2018 15.7 (18:40) 4.6 (00:00) 10.1 5.83 (12:10) 3.33 (11:50) 0 0 0 0 0
04-04-2018 14.4 (18:00) 6.2 (00:00) 10.3 8.61 (02:00) 3.89 (04:10) 0 0 0 0 0
03-04-2018 16 (14:30) 5.6 (00:00) 10.8 8.06 (22:00) 4.17 (22:30) 0 0 0 0 0
02-04-2018 14.3 (14:30) 10 (00:00) 12.2 11.39 (05:30) 5.28 (05:30) 2 2 0 0 0
01-04-2018 15.3 (17:40) 5.5 (00:00) 10.4 7.5 (19:10) 2.78 (17:30) 0 0 0 0 0
31-03-2018 17.9 (16:10) 5.9 (00:00) 11.9 6.39 (17:10) 3.61 (17:10) 0 0 0 0 0
30-03-2018 18.7 (10:30) 8.9 (00:00) 13.8 8.61 (16:30) 4.17 (21:50) 0 0 0 0 0
29-03-2018 23 (17:20) 17.1 (00:00) 20.1 13.33 (03:50) 5.28 (03:50) 0 0 0 0 0
28-03-2018 21.1 (14:30) 11.2 (00:00) 16.2 6.39 (23:59) 3.33 (23:59) 0 0 0 0 0
27-03-2018 20.9 (18:00) 8.5 (00:00) 14.7 8.61 (02:40) 3.89 (03:10) 0 0 0 0 0
26-03-2018 17.6 (17:20) 10.5 (00:00) 14.1 13.33 (05:30) 5.28 (08:00) 0 0 0 0 0
25-03-2018 16.7 (12:40) 11.3 (00:00) 14 12.22 (08:00) 5.28 (05:00) 0 0 0 0 0
24-03-2018 16.1 (13:00) 9.4 (00:00) 12.8 9.72 (12:40) 3.61 (17:50) 0 0 0 0 0
23-03-2018 18.4 (15:40) 6.7 (00:00) 12.5 8.06 (21:10) 3.06 (13:00) 0 0 0 0 0

Gráficas

Temp. máximas Temp. mínimas Temp. medias Precipitaciones Rachas de viento máximas Velocidades máximas media en intervalos de 10 minutos

Datos horarios

Fecha y hora oficial Temperatura (ºC) Velocidad del viento (km/h) Dirección del viento Racha (km/h) Dirección de racha Precipitación (mm) Presión (hPa) Tendencia (hPa) Humedad (%)
2018-04-21 23:00:00 10.4 10 Norte 39 Sudoeste 0 -- -- 95
2018-04-21 22:00:00 10.4 7 Norte 32 Norte 0 -- -- 97
2018-04-21 21:00:00 10.4 9 Nordeste 28 Nordeste 0.2 -- -- 98
2018-04-21 20:00:00 10.5 8 Norte 37 Noroeste 0.4 -- -- 99
2018-04-21 19:00:00 10.5 10 Norte 33 Nordeste 0.2 -- -- 98
2018-04-21 18:00:00 10.5 8 Norte 32 Nordeste 0.2 -- -- 97
2018-04-21 17:00:00 10.5 9 Nordeste 32 Nordeste 0.6 -- -- 92
2018-04-21 16:00:00 10.8 8 Norte 44 Nordeste 0 -- -- 91
2018-04-21 15:00:00 10.7 8 Norte 38 Nordeste 0.2 -- -- 95
2018-04-21 14:00:00 11 6 Norte 32 Noroeste 0 -- -- 89
2018-04-21 13:00:00 11.4 9 Norte 31 Nordeste 0 -- -- 85
2018-04-21 12:00:00 10.7 8 Noroeste 32 Este 0 -- -- 90
2018-04-21 11:00:00 10.4 12 Norte 41 Norte 0 -- -- 85
2018-04-21 10:00:00 9.2 14 Norte 40 Nordeste 0.2 -- -- 90
2018-04-21 09:00:00 8.9 11 Norte 33 Este 0.4 -- -- 91
2018-04-21 08:00:00 8.6 9 Norte 35 Este 0 -- -- 90
2018-04-21 07:00:00 8.3 6 Noroeste 28 Nordeste 0.4 -- -- 93
2018-04-21 06:00:00 8.7 9 Norte 41 Noroeste 0 -- -- 85
2018-04-21 05:00:00 8.7 9 Noroeste 26 Norte 0.2 -- -- 86
2018-04-21 04:00:00 8.8 7 Norte 30 Norte 0 -- -- 86
2018-04-21 03:00:00 8.8 9 Norte 32 Norte 0 -- -- 83
2018-04-21 02:00:00 8.8 6 Nordeste 36 Este 0 -- -- 81
2018-04-21 01:00:00 8.9 11 Norte 35 Este 0 -- -- 84
2018-04-21 00:00:00 9 10 Nordeste 32 Norte 0 -- -- 85
2018-04-20 23:00:00 8.9 6 Norte 32 Noroeste 0 -- -- 84
2018-04-20 22:00:00 9.2 8 Nordeste 25 Nordeste 0 -- -- 80
2018-04-20 21:00:00 9.1 10 Norte 28 Nordeste 0 -- -- 80
2018-04-20 20:00:00 9.4 9 Norte 32 Nordeste 0 -- -- 76
2018-04-20 19:00:00 10 12 Nordeste 35 Norte 0 -- -- 71
2018-04-20 18:00:00 9.9 13 Nordeste 37 Noroeste 0 -- -- 78
2018-04-20 17:00:00 10.5 10 Norte 42 Noroeste 0 -- -- 85
2018-04-20 16:00:00 11.8 9 Norte 29 Norte 0 -- -- 74
2018-04-20 15:00:00 10.6 10 Norte 36 Norte 0 -- -- 84
2018-04-20 14:00:00 12.5 12 Nordeste 35 Norte 0 -- -- 63
2018-04-20 13:00:00 11.1 15 Nordeste 39 Norte 0 -- -- 75
2018-04-20 12:00:00 11 14 Norte 38 Norte 0 -- -- 74
2018-04-20 11:00:00 11.2 14 Nordeste 47 Noroeste 0 -- -- 74
2018-04-20 10:00:00 11 13 Norte 41 Este 0 -- -- 74
2018-04-20 09:00:00 9.4 9 Nordeste 45 Norte 0 -- -- 81
2018-04-20 08:00:00 9 9 Norte 41 Norte 0 -- -- 88
2018-04-20 07:00:00 8.9 10 Nordeste 37 Norte 0 -- -- 85
2018-04-20 06:00:00 9 14 Norte 48 Noroeste 0.2 -- -- 86
2018-04-20 05:00:00 9.1 15 Norte 43 Norte 0 -- -- 88
2018-04-20 04:00:00 9.3 13 Nordeste 33 Este 0.6 -- -- 88
2018-04-20 03:00:00 9.9 10 Norte 39 Norte 0 -- -- 87
2018-04-20 02:00:00 9.7 12 Nordeste 37 Nordeste 0 -- -- 83
2018-04-20 01:00:00 10.2 11 Nordeste 40 Norte 0 -- -- 86
2018-04-20 00:00:00 10.5 12 Norte 42 Norte 0 -- -- 88
2018-04-19 23:00:00 10.3 15 Norte 50 Noroeste 0 -- -- 87
2018-04-19 22:00:00 10.4 14 Norte 51 Noroeste 0 -- -- 89
2018-04-19 21:00:00 10.5 20 Noroeste 60 Noroeste 0 -- -- 85
2018-04-19 20:00:00 11.3 18 Norte 43 Nordeste 0 -- -- 82
2018-04-19 19:00:00 12.1 11 Norte 43 Norte 0 -- -- 86
2018-04-19 18:00:00 13.7 15 Noroeste 44 Oeste 0 -- -- 78
2018-04-19 17:00:00 14.8 13 Noroeste 39 Noroeste 0 -- -- 76
2018-04-19 16:00:00 16.6 16 Noroeste 44 Noroeste 0 -- -- 68
2018-04-19 15:00:00 17 15 Noroeste 39 Norte 0 -- -- 59
2018-04-19 14:00:00 17 18 Noroeste 42 Noroeste 0 -- -- 62
2018-04-19 13:00:00 16.6 17 Noroeste 55 Norte 0 -- -- 65
2018-04-19 12:00:00 17.2 10 Norte 34 Nordeste 0 -- -- 62
2018-04-19 11:00:00 16.7 10 Norte 29 Nordeste 0 -- -- 60
2018-04-19 10:00:00 15.8 11 Norte 41 Norte 0 -- -- 58
2018-04-19 09:00:00 14.4 15 Norte 35 Noroeste 0 -- -- 61
2018-04-19 08:00:00 13.3 15 Norte 40 Noroeste 0 -- -- 62
2018-04-19 07:00:00 12.9 19 Norte 45 Noroeste 0 -- -- 66
2018-04-19 06:00:00 12.5 16 Norte 44 Noroeste 0 -- -- 47
2018-04-19 05:00:00 11.7 19 Noroeste 49 Noroeste 0 -- -- 73
2018-04-19 04:00:00 15.9 6 Noroeste 39 Noroeste 0 -- -- 21
2018-04-19 03:00:00 14.8 15 Noroeste 37 Noroeste 0 -- -- 45
2018-04-19 02:00:00 15.6 14 Noroeste 35 Noroeste 0 -- -- 47
2018-04-19 01:00:00 16 13 Noroeste 31 Noroeste 0 -- -- 38
2018-04-19 00:00:00 16.5 14 Noroeste 31 Oeste 0 -- -- 28
2018-04-18 23:00:00 16.9 14 Noroeste 24 Noroeste 0 -- -- 25
2018-04-18 22:00:00 15.3 6 Noroeste 13 Noroeste 0 -- -- 32
2018-04-18 21:00:00 16.5 7 Noroeste 12 Norte 0 -- -- 33
2018-04-18 20:00:00 20 3 Noroeste 9 Sur 0 -- -- 34
2018-04-18 19:00:00 23.1 6 Sur 14 Sur 0 -- -- 32
2018-04-18 18:00:00 23.8 9 Sudeste 17 Sur 0 -- -- 28
2018-04-18 17:00:00 25.8 7 Sudoeste 21 Sur 0 -- -- 18
2018-04-18 16:00:00 25.5 12 Sur 26 Sur 0 -- -- 24
2018-04-18 15:00:00 24.4 11 Sur 21 Sudeste 0 -- -- 24
2018-04-18 14:00:00 23.2 11 Sudeste 19 Sudeste 0 -- -- 31
2018-04-18 13:00:00 23.1 10 Sudeste 23 Sudeste 0 -- -- 31
2018-04-18 12:00:00 22.6 8 Sudeste 15 Este 0 -- -- 28
2018-04-18 11:00:00 21.6 6 Sudeste 13 Sudeste 0 -- -- 33
2018-04-18 10:00:00 19.9 5 Sudeste 9 Sudeste 0 -- -- 35
2018-04-18 09:00:00 13.4 5 Norte 10 Norte 0 -- -- 64
2018-04-18 08:00:00 10.6 9 Norte 11 Noroeste 0 -- -- 56
2018-04-18 07:00:00 10.7 9 Norte 12 Norte 0 -- -- 54
2018-04-18 06:00:00 10.9 8 Norte 13 Noroeste 0 -- -- 52
2018-04-18 05:00:00 11.1 6 Norte 14 Noroeste 0 -- -- 49
2018-04-18 04:00:00 12.3 8 Noroeste 16 Noroeste 0 -- -- 46
2018-04-18 03:00:00 11.5 8 Norte 13 Noroeste 0 -- -- 49
2018-04-18 02:00:00 12.5 7 Noroeste 17 Noroeste 0 -- -- 47
2018-04-18 01:00:00 12.2 7 Noroeste 12 Noroeste 0 -- -- 45
2018-04-18 00:00:00 11.9 7 Norte 9 Norte 0 -- -- 46
2018-04-17 23:00:00 12 8 Norte 10 Norte 0 -- -- 45
2018-04-17 22:00:00 12.2 7 Norte 9 Norte 0 -- -- 46
2018-04-17 21:00:00 13.7 7 Norte 9 Norte 0 -- -- 47
2018-04-17 20:00:00 16.9 4 Norte 10 Sudeste 0 -- -- 53
2018-04-17 19:00:00 19.5 8 Sudeste 15 Sudeste 0 -- -- 46
2018-04-17 18:00:00 20.4 10 Sur 17 Sudeste 0 -- -- 40
2018-04-17 17:00:00 21.5 9 Sudeste 16 Sur -- -- -- 43
2018-04-17 16:00:00 21.1 8 Sur 21 Sudeste 0 -- -- 32
2018-04-17 15:00:00 20 7 Sur 18 Sudeste 0 -- -- 40
2018-04-17 14:00:00 20.2 9 Sur 18 Sur 0 -- -- 35
2018-04-17 13:00:00 19.7 8 Sur 16 Sudeste 0 -- -- 52
2018-04-17 12:00:00 18.2 8 Sur 15 Sur 0 -- -- 60
2018-04-17 11:00:00 14.8 7 Sudeste 12 Sudeste 0 -- -- 82
2018-04-17 10:00:00 15.8 6 Sudeste 13 Sudeste 0 -- -- 75
2018-04-17 09:00:00 11 3 Norte 9 Norte 0 -- -- 70
2018-04-17 08:00:00 8.5 8 Norte 10 Norte 0 -- -- 59
2018-04-17 07:00:00 8.4 6 Norte 10 Norte 0 -- -- 57
2018-04-17 06:00:00 8.5 6 Norte 10 Norte 0 -- -- 50
2018-04-17 05:00:00 8.5 7 Norte 11 Norte 0 -- -- 44
2018-04-17 04:00:00 8.4 7 Norte 10 Norte 0 -- -- 39
2018-04-17 03:00:00 8.7 6 Norte 10 Norte 0 -- -- 37
2018-04-17 02:00:00 8.8 5 Norte 11 Norte 0 -- -- 36
2018-04-17 01:00:00 9.6 4 Norte 15 Nordeste 0 -- -- 34
2018-04-17 00:00:00 9.8 6 Norte 12 Norte 0 -- -- 34
2018-04-16 23:00:00 9.7 6 Norte 12 Norte 0 -- -- 37
2018-04-16 22:00:00 9.1 5 Norte 9 Norte 0 -- -- 44
2018-04-16 21:00:00 9.6 4 Norte 9 Norte 0 -- -- 56
2018-04-16 20:00:00 12.9 2 Sur 8 Sudeste 0 -- -- 98
2018-04-16 19:00:00 13.4 5 Sudeste 10 Sudeste 0 -- -- 97
2018-04-16 18:00:00 13.5 3 Sudeste 10 Sudeste 0 -- -- 97
2018-04-16 17:00:00 13.1 6 Este 15 Sudeste 0 -- -- 96
2018-04-16 16:00:00 15 7 Sudeste 15 Sur 0 -- -- 87
2018-04-16 15:00:00 17.3 10 Sudeste 18 Sur 0 -- -- 75
2018-04-16 14:00:00 17.6 10 Sudeste 17 Sur 0 -- -- 70
2018-04-16 13:00:00 16.8 10 Sudeste 18 Sudeste 0 -- -- 74
2018-04-16 12:00:00 16.6 9 Sudeste 15 Sudeste 0 -- -- 76
2018-04-16 11:00:00 15.8 7 Sudeste 12 Sudeste 0 -- -- 78
2018-04-16 10:00:00 16.7 5 Sudeste 9 Sudeste 0 -- -- 71
2018-04-16 09:00:00 11.2 3 Norte 9 Norte 0 -- -- 86
2018-04-16 08:00:00 8.3 7 Norte 11 Norte 0 -- -- 82
2018-04-16 07:00:00 8.8 7 Norte 11 Norte 0 -- -- 79
2018-04-16 06:00:00 8.9 8 Norte 10 Norte 0 -- -- 79
2018-04-16 05:00:00 8.8 7 Norte 10 Norte 0 -- -- 79
2018-04-16 04:00:00 8.6 5 Norte 8 Norte 0 -- -- 80
2018-04-16 03:00:00 8.7 5 Norte 8 Norte 0 -- -- 80
2018-04-16 02:00:00 9.4 4 Norte 6 Norte 0 -- -- 81
2018-04-16 01:00:00 10 4 Norte 10 Noroeste 0 -- -- 79
2018-04-16 00:00:00 10 5 Norte 12 Norte 0 -- -- 81
2018-04-15 23:00:00 9.8 5 Noroeste 9 Norte 0 -- -- 85
2018-04-15 22:00:00 10.5 4 Norte 6 Norte 0 -- -- 86
2018-04-15 21:00:00 12.2 0 Calma 13 Norte 0 -- -- 82
2018-04-15 20:00:00 14.5 6 Norte 13 Noroeste 0 -- -- 75
2018-04-15 19:00:00 17 5 Sur 14 Sur 0 -- -- 74
2018-04-15 18:00:00 17 5 Sur 13 Sur 0 -- -- 75
2018-04-15 17:00:00 16.7 7 Sur 17 Sur 0 -- -- 77
2018-04-15 16:00:00 16 8 Sudeste 18 Sudeste 0 -- -- 79
2018-04-15 15:00:00 15.1 10 Sudeste 20 Sudeste 0 -- -- 81
2018-04-15 14:00:00 13.6 8 Sudeste 23 Sudeste 0 -- -- 86
2018-04-15 13:00:00 13.8 10 Este 21 Sudeste 0 -- -- 86
2018-04-15 12:00:00 14.5 10 Sudeste 18 Sudeste 0 -- -- 82
2018-04-15 11:00:00 14.8 9 Sur 15 Sudeste 0 -- -- 82
2018-04-15 10:00:00 15.2 8 Sur 14 Sur 0 -- -- 79
2018-04-15 09:00:00 11.9 4 Sudoeste 15 Nordeste 0 -- -- 94
2018-04-15 08:00:00 10.7 5 Oeste 16 Nordeste 0 -- -- 94
2018-04-15 07:00:00 12.2 6 Norte 19 Norte 0 -- -- 76
2018-04-15 06:00:00 11.1 3 Nordeste 13 Este 0 -- -- 81
2018-04-15 05:00:00 11.9 4 Norte 18 Nordeste 0 -- -- 75
2018-04-15 04:00:00 12 6 Nordeste 23 Norte 0 -- -- 76
2018-04-15 03:00:00 10.9 4 Este 12 Norte 0 -- -- 84
2018-04-15 02:00:00 11.8 4 Nordeste 19 Noroeste 0 -- -- 76
2018-04-15 01:00:00 11.3 3 Nordeste 19 Nordeste 0 -- -- 81
2018-04-15 00:00:00 11 8 Este 21 Sudeste 0 -- -- 82
2018-04-14 23:00:00 9.4 5 Noroeste 13 Este 0 -- -- 90
2018-04-14 22:00:00 8.8 3 Norte 5 Norte 0 -- -- 91
2018-04-14 21:00:00 10.3 2 Norte 6 Este 0 -- -- 86
2018-04-14 20:00:00 11.6 4 Sudeste 22 Este 0 -- -- 86
2018-04-14 19:00:00 13.8 10 Este 23 Este 0 -- -- 75
2018-04-14 18:00:00 15.3 9 Este 29 Este 0 -- -- 69
2018-04-14 17:00:00 16.2 11 Nordeste 33 Noroeste 0 -- -- 64
2018-04-14 16:00:00 15.5 13 Este 28 Sudeste 0 -- -- 72
2018-04-14 15:00:00 15.7 12 Sudeste 23 Sudeste 0 -- -- 70
2018-04-14 14:00:00 15.5 11 Sudeste 23 Este 0 -- -- 68
2018-04-14 13:00:00 15.1 12 Sudeste 22 Sudeste 0 -- -- 70
2018-04-14 12:00:00 14.8 13 Sudeste 27 Este 0 -- -- 76
2018-04-14 11:00:00 12.2 5 Este 22 Sudeste 0 -- -- 87
2018-04-14 10:00:00 11.4 5 Este 14 Sudeste 0 -- -- 92
2018-04-14 09:00:00 10.2 4 Sur 10 Sudoeste 0 -- -- 94
2018-04-14 08:00:00 8.2 3 Sudoeste 20 Sudeste 0 -- -- 93
2018-04-14 07:00:00 7.7 3 Oeste 10 Sur 0 -- -- 96
2018-04-14 06:00:00 8.8 2 Oeste 19 Sudeste 0 -- -- 95
2018-04-14 05:00:00 8.9 4 Sudeste 17 Sur 0 -- -- 93
2018-04-14 04:00:00 9 9 Nordeste 29 Este 0 -- -- 90
2018-04-14 03:00:00 9.3 8 Este 24 Este 0 -- -- 94
2018-04-14 02:00:00 8.8 5 Este 15 Sudeste 0 -- -- 93
2018-04-14 01:00:00 9.4 5 Sudoeste 17 Oeste 0 -- -- 92
2018-04-14 00:00:00 9.7 6 Este 27 Este 0 -- -- 92
2018-04-13 23:00:00 10 7 Nordeste 22 Este 0 -- -- 95
2018-04-13 22:00:00 9.9 7 Nordeste 27 Nordeste 0 -- -- 91
2018-04-13 21:00:00 10.2 9 Sudeste 25 Este 0 -- -- 92
2018-04-13 20:00:00 11 8 Este 35 Este 0 -- -- 89
2018-04-13 19:00:00 11.9 10 Nordeste 27 Sudeste 0 -- -- 83
2018-04-13 18:00:00 12.4 12 Este 38 Noroeste 0 -- -- 76
2018-04-13 17:00:00 13.7 8 Sudoeste 37 Oeste 0 -- -- 70
2018-04-13 16:00:00 14 7 Sur 33 Noroeste 0 -- -- 72
2018-04-13 15:00:00 13.2 8 Oeste 26 Noroeste 0 -- -- 77
2018-04-13 14:00:00 12.5 6 Sudeste 31 Nordeste 0 -- -- 83
2018-04-13 13:00:00 12.7 10 Nordeste 26 Norte 0 -- -- 82
2018-04-13 12:00:00 12.3 6 Sudeste 21 Nordeste 0 -- -- 85
2018-04-13 11:00:00 11.1 6 Nordeste 28 Norte 0 -- -- 89
2018-04-13 10:00:00 10.4 6 Norte 43 Norte 0 -- -- 91
2018-04-13 09:00:00 10.4 13 Norte 32 Norte 0 -- -- 88
2018-04-13 08:00:00 8.9 7 Nordeste 21 Noroeste 0 -- -- 88
2018-04-13 07:00:00 8.8 10 Norte 38 Norte 0 -- -- 83
2018-04-13 06:00:00 9.2 16 Noroeste 43 Noroeste 0 -- -- 95
2018-04-13 05:00:00 10.1 11 Norte 42 Norte 0 -- -- 96
2018-04-13 04:00:00 10.5 11 Norte 42 Norte 0 -- -- 92
2018-04-13 03:00:00 11.3 18 Noroeste 41 Noroeste 0.4 -- -- 96
2018-04-13 02:00:00 11.6 13 Norte 38 Noroeste 0.2 -- -- 97
2018-04-13 01:00:00 11.9 12 Norte 42 Norte 0.2 -- -- 97
2018-04-13 00:00:00 11.7 18 Noroeste 48 Norte 0 -- -- 98
2018-04-12 23:00:00 11.3 15 Noroeste 39 Norte 0 -- -- 96
2018-04-12 22:00:00 11.8 11 Norte 40 Norte 0 -- -- 95
2018-04-12 21:00:00 11.9 12 Norte 40 Norte 0 -- -- 93
2018-04-12 20:00:00 11.8 13 Norte 44 Norte 0 -- -- 90
2018-04-12 19:00:00 13.1 9 Nordeste 30 Norte 0 -- -- 74
2018-04-12 18:00:00 14.4 8 Nordeste 31 Este 0 -- -- 69
2018-04-12 17:00:00 14.7 10 Noroeste 32 Norte 0 -- -- 72
2018-04-12 16:00:00 15.7 8 Nordeste 27 Oeste 0 -- -- 66
2018-04-12 15:00:00 15.8 11 Nordeste 28 Nordeste 0 -- -- 65
2018-04-12 14:00:00 15.5 12 Norte 35 Noroeste 0 -- -- 67
2018-04-12 13:00:00 14.1 12 Oeste 32 Noroeste 0 -- -- 74
2018-04-12 12:00:00 12.2 8 Sudeste 31 Este 0 -- -- 86
2018-04-12 11:00:00 11.2 7 Sudeste 28 Nordeste 0 -- -- 92
2018-04-12 10:00:00 11.5 7 Sur 26 Oeste 0 -- -- 91
2018-04-12 09:00:00 10.9 6 Sur 24 Noroeste 0 -- -- 96
2018-04-12 08:00:00 10.6 6 Noroeste 18 Oeste 0 -- -- 94
2018-04-12 07:00:00 10.8 5 Oeste 14 Oeste 0 -- -- 96
2018-04-12 06:00:00 10.6 4 Noroeste 21 Norte 0 -- -- 95
2018-04-12 05:00:00 11 6 Norte 22 Noroeste 0 -- -- 94
2018-04-12 04:00:00 11.2 6 Sur 29 Sur 0 -- -- 95
2018-04-12 03:00:00 10.9 10 Este 28 Este 0 -- -- 93
2018-04-12 02:00:00 10.5 12 Este 35 Norte 0 -- -- 87
2018-04-12 01:00:00 10.6 17 Norte 42 Norte 0 -- -- 89
2018-04-12 00:00:00 10.8 15 Noroeste 40 Norte 0 -- -- 90
2018-04-11 23:00:00 11.2 14 Norte 41 Norte 0 -- -- 91
2018-04-11 22:00:00 11.3 14 Norte 39 Noroeste 0 -- -- 86
2018-04-11 21:00:00 11.7 16 Noroeste 36 Noroeste 0 -- -- 87
2018-04-11 20:00:00 12.4 12 Norte 33 Noroeste 0 -- -- 85
2018-04-11 19:00:00 13.6 18 Noroeste 45 Noroeste 0 -- -- 82
2018-04-11 18:00:00 15.2 14 Noroeste 42 Noroeste 0 -- -- 77
2018-04-11 17:00:00 17.8 7 Noroeste 22 Sur 0 -- -- 66
2018-04-11 16:00:00 18.2 6 Norte 25 Noroeste 0 -- -- 62
2018-04-11 15:00:00 18.2 8 Sur 22 Sur 0 -- -- 67
2018-04-11 14:00:00 16.6 8 Sudeste 20 Sudeste 0 -- -- 68
2018-04-11 13:00:00 17 12 Sudeste 23 Sudeste 0 -- -- 67
2018-04-11 12:00:00 16.2 9 Sudeste 40 Norte 0 -- -- 66
2018-04-11 11:00:00 14.9 7 Sur 27 Noroeste 0 -- -- 73
2018-04-11 10:00:00 14.1 7 Este 22 Sudeste 0 -- -- 71
2018-04-11 09:00:00 11.5 10 Norte 29 Noroeste 0 -- -- 79
2018-04-11 08:00:00 9.8 12 Norte 34 Norte 0 -- -- 88
2018-04-11 07:00:00 9.7 6 Este 32 Oeste 0 -- -- 87
2018-04-11 06:00:00 9 4 Noroeste 21 Sudeste 0 -- -- 87
2018-04-11 05:00:00 9 6 Este 15 Este 0 -- -- 93
2018-04-11 04:00:00 9.3 7 Nordeste 25 Nordeste 0 -- -- 89
2018-04-11 03:00:00 9.7 5 Sur 32 Norte 0 -- -- 88
2018-04-11 02:00:00 9.7 5 Nordeste 26 Norte 0 -- -- 85
2018-04-11 01:00:00 10 11 Norte 38 Noroeste 0 -- -- 83
2018-04-11 00:00:00 10.2 10 Norte 29 Norte 0 -- -- 83
2018-04-10 23:00:00 10.1 7 Nordeste 21 Noroeste 0 -- -- 80
2018-04-10 22:00:00 9.7 5 Este 16 Este 0 -- -- 86
2018-04-10 21:00:00 10.2 5 Oeste 12 Oeste 0 -- -- 86
2018-04-10 20:00:00 11.1 4 Sur 18 Noroeste 0 -- -- 80
2018-04-10 19:00:00 12.9 9 Oeste 19 Sudoeste 0 -- -- 72
2018-04-10 18:00:00 13.9 9 Sudoeste 22 Este 0 -- -- 71
2018-04-10 17:00:00 13.7 7 Este 28 Este 0 -- -- 73
2018-04-10 16:00:00 13.5 7 Nordeste 24 Noroeste 0 -- -- 79
2018-04-10 15:00:00 13 10 Nordeste 30 Nordeste 0 -- -- 79
2018-04-10 14:00:00 12.7 10 Nordeste 32 Norte 0 -- -- 84
2018-04-10 13:00:00 13.1 11 Nordeste 31 Noroeste 0 -- -- 78
2018-04-10 12:00:00 12.5 13 Nordeste 45 Nordeste 0 -- -- 77
2018-04-10 11:00:00 12.6 10 Nordeste 33 Norte 0 -- -- 76
2018-04-10 10:00:00 11.5 12 Nordeste 36 Nordeste 0 -- -- 77
2018-04-10 09:00:00 9.7 13 Norte 46 Noroeste 0 -- -- 81
2018-04-10 08:00:00 8.6 16 Norte 50 Norte 0 -- -- 85
2018-04-10 07:00:00 8.6 13 Norte 52 Nordeste 0 -- -- 77
2018-04-10 06:00:00 8.7 18 Norte 53 Noroeste 0 -- -- 83
2018-04-10 05:00:00 8.6 13 Norte 37 Nordeste 0 -- -- 85
2018-04-10 04:00:00 8.6 10 Nordeste 46 Nordeste 0 -- -- 84
2018-04-10 03:00:00 9.1 12 Nordeste 37 Nordeste 0 -- -- 84
2018-04-10 02:00:00 9.1 12 Nordeste 35 Nordeste 0 -- -- 87
2018-04-10 01:00:00 9.4 13 Nordeste 36 Nordeste 0 -- -- 89
2018-04-10 00:00:00 9.1 10 Nordeste 39 Norte 0 -- -- 86
2018-04-09 23:00:00 9.3 14 Nordeste 36 Nordeste 0 -- -- 86
2018-04-09 22:00:00 9.4 11 Nordeste 36 Nordeste 0 -- -- 90
2018-04-09 21:00:00 9.5 14 Norte 50 Norte 0 -- -- 83
2018-04-09 20:00:00 10.6 14 Nordeste 40 Nordeste 0 -- -- 80
2018-04-09 19:00:00 11.1 14 Norte 48 Nordeste 0 -- -- 78
2018-04-09 18:00:00 13 15 Nordeste 50 Nordeste 0 -- -- 69
2018-04-09 17:00:00 12.1 21 Norte 55 Norte 0 -- -- 76
2018-04-09 16:00:00 13.9 16 Norte 48 Norte 0 -- -- 68
2018-04-09 15:00:00 14.2 17 Norte 51 Noroeste 0 -- -- 67
2018-04-09 14:00:00 14.5 14 Norte 50 Norte 0 -- -- 59
2018-04-09 13:00:00 13.4 20 Norte 48 Norte 0 -- -- 63
2018-04-09 12:00:00 13.5 15 Norte 47 Norte 0 -- -- 70
2018-04-09 11:00:00 11.5 19 Norte 48 Nordeste 0 -- -- 79
2018-04-09 10:00:00 9.2 12 Norte 52 Nordeste 0 -- -- 85
2018-04-09 09:00:00 8.6 16 Norte 43 Norte 0 -- -- 85
2018-04-09 08:00:00 8.3 15 Norte 41 Nordeste 0 -- -- 85
2018-04-09 07:00:00 9.3 12 Norte 46 Norte 0 -- -- 83
2018-04-09 06:00:00 9.7 16 Norte 49 Nordeste 0.2 -- -- 92
2018-04-09 05:00:00 10.6 21 Norte 52 Nordeste 0.6 -- -- 97
2018-04-09 04:00:00 10.4 19 Norte 48 Norte 0 -- -- 92
2018-04-09 03:00:00 10.4 19 Norte 43 Norte 0 -- -- 96
2018-04-09 02:00:00 10.4 12 Norte 35 Norte 0.4 -- -- 96
2018-04-09 01:00:00 10.8 11 Norte 42 Norte 0.2 -- -- 94
2018-04-09 00:00:00 10.7 15 Norte 53 Norte 0 -- -- 90
2018-04-08 23:00:00 10.9 14 Norte 50 Norte 0.2 -- -- 93
2018-04-08 22:00:00 11 15 Norte 52 Norte 0 -- -- 94
2018-04-08 21:00:00 11 19 Norte 54 Norte 0 -- -- 92
2018-04-08 20:00:00 11.2 16 Norte 45 Norte 0 -- -- 88
2018-04-08 19:00:00 12.1 16 Norte 46 Noroeste 0 -- -- 83
2018-04-08 18:00:00 13.4 14 Norte 40 Norte 0 -- -- 80
2018-04-08 17:00:00 14.6 15 Norte 48 Norte 0 -- -- 70
2018-04-08 16:00:00 14.6 14 Nordeste 39 Nordeste 0 -- -- 74
2018-04-08 15:00:00 13.5 14 Nordeste 37 Norte 0 -- -- 75
2018-04-08 14:00:00 12.2 14 Nordeste 37 Norte 0.2 -- -- 88
2018-04-08 13:00:00 12.7 14 Nordeste 45 Nordeste 0 -- -- 82
2018-04-08 12:00:00 13.3 12 Nordeste 44 Norte 0 -- -- 72
2018-04-08 11:00:00 13.1 13 Nordeste 42 Este 0 -- -- 71
2018-04-08 10:00:00 10.1 12 Nordeste 31 Norte 0 -- -- 79
2018-04-08 09:00:00 9.8 10 Norte 27 Norte 0 -- -- 80
2018-04-08 08:00:00 8.3 6 Nordeste 30 Nordeste 0 -- -- 83
2018-04-08 07:00:00 8.6 9 Nordeste 32 Norte 0 -- -- 84
2018-04-08 06:00:00 8.4 7 Norte 33 Este 0 -- -- 87
2018-04-08 05:00:00 8.6 12 Nordeste 30 Nordeste 0 -- -- 84
2018-04-08 04:00:00 9.2 11 Nordeste 29 Nordeste 0 -- -- 85
2018-04-08 03:00:00 9 9 Nordeste 28 Nordeste 0 -- -- 88
2018-04-08 02:00:00 8.3 8 Norte 33 Este 0 -- -- 82
2018-04-08 01:00:00 8.8 13 Este 30 Este 0 -- -- 87
2018-04-08 00:00:00 9.2 10 Nordeste 23 Nordeste 0 -- -- 86
2018-04-07 23:00:00 9.4 8 Nordeste 32 Norte 0 -- -- 84
2018-04-07 22:00:00 9.1 9 Nordeste 22 Este 0 -- -- 85
2018-04-07 21:00:00 9.5 9 Nordeste 24 Norte 0 -- -- 83
2018-04-07 20:00:00 10.5 8 Nordeste 31 Nordeste 0 -- -- 83
2018-04-07 19:00:00 12 12 Nordeste 37 Nordeste 0 -- -- 78
2018-04-07 18:00:00 12.5 13 Nordeste 30 Nordeste 0 -- -- 65
2018-04-07 17:00:00 13.1 11 Nordeste 27 Nordeste 0 -- -- 67
2018-04-07 16:00:00 13.1 12 Nordeste 31 Norte 0 -- -- 72
2018-04-07 15:00:00 12.2 11 Nordeste 30 Sudeste 0 -- -- 75
2018-04-07 14:00:00 11.4 7 Noroeste 26 Norte 0 -- -- 80
2018-04-07 13:00:00 10.3 7 Nordeste 27 Norte 0 -- -- 90
2018-04-07 12:00:00 10.6 10 Norte 32 Norte 0 -- -- 88
2018-04-07 11:00:00 10.4 9 Nordeste 24 Este 0 -- -- 89
2018-04-07 10:00:00 9.9 10 Este 21 Este 0 -- -- 92
2018-04-07 09:00:00 9.1 10 Este 22 Este 0.4 -- -- 95
2018-04-07 08:00:00 9.3 7 Nordeste 25 Este 0.4 -- -- 96
2018-04-07 07:00:00 9.6 5 Nordeste 23 Este 0 -- -- 93
2018-04-07 06:00:00 9.2 13 Este 31 Este 0.4 -- -- 96
2018-04-07 05:00:00 9.5 10 Sudeste 26 Nordeste 0 -- -- 92
2018-04-07 04:00:00 9.6 7 Nordeste 30 Norte 0 -- -- 90
2018-04-07 03:00:00 9.6 8 Nordeste 36 Noroeste 0 -- -- 90
2018-04-07 02:00:00 9.5 12 Norte 36 Norte 0.2 -- -- 92
2018-04-07 01:00:00 10.1 11 Nordeste 32 Este 0.4 -- -- 98
2018-04-07 00:00:00 10.5 9 Este 36 Este 0.2 -- -- 94
2018-04-06 23:00:00 10.7 10 Este 28 Este 0 -- -- 91
2018-04-06 22:00:00 10.7 10 Norte 34 Oeste 0 -- -- 86
2018-04-06 21:00:00 11 6 Nordeste 36 Nordeste 0 -- -- 92
2018-04-06 20:00:00 11.4 9 Norte 35 Norte 0 -- -- 92
2018-04-06 19:00:00 11.9 14 Noroeste 35 Noroeste 0 -- -- 90
2018-04-06 18:00:00 12.6 9 Noroeste 29 Noroeste 0.4 -- -- 88
2018-04-06 17:00:00 13.6 8 Sur 21 Oeste 0 -- -- 90
2018-04-06 16:00:00 13.7 10 Oeste 26 Norte 0 -- -- 84
2018-04-06 15:00:00 16 7 Sudeste 22 Nordeste 0 -- -- 70
2018-04-06 14:00:00 16 12 Sudoeste 32 Sudoeste 0 -- -- 66
2018-04-06 13:00:00 14.9 9 Sudeste 16 Este 0 -- -- 74
2018-04-06 12:00:00 14.7 10 Sudeste 17 Este 0 -- -- 74
2018-04-06 11:00:00 14.8 10 Sudeste 16 Este 0 -- -- 68
2018-04-06 10:00:00 13.3 7 Sudeste 14 Sudeste 0 -- -- 74
2018-04-06 09:00:00 10 3 Nordeste 8 Noroeste 0 -- -- 60
2018-04-06 08:00:00 7.6 5 Norte 8 Norte 0 -- -- 63
2018-04-06 07:00:00 6.7 4 Norte 8 Noroeste 0 -- -- 49
2018-04-06 06:00:00 6.4 3 Norte 9 Norte 0 -- -- 49
2018-04-06 05:00:00 7.3 2 Noroeste 6 Norte 0 -- -- 56
2018-04-06 04:00:00 7.9 5 Norte 9 Noroeste 0 -- -- 54
2018-04-06 03:00:00 8.2 7 Noroeste 10 Oeste 0 -- -- 53
2018-04-06 02:00:00 8.1 8 Noroeste 12 Noroeste 0 -- -- 56
2018-04-06 01:00:00 7.5 4 Noroeste 8 Noroeste 0 -- -- 50
2018-04-06 00:00:00 8 3 Nordeste 6 Este 0 -- -- 42
2018-04-05 23:00:00 8.3 3 Noroeste 7 Norte 0 -- -- 43
2018-04-05 22:00:00 8.5 4 Norte 9 Norte 0 -- -- 46
2018-04-05 21:00:00 9.3 5 Norte 8 Norte 0 -- -- 61
2018-04-05 20:00:00 12.7 3 Norte 11 Sur 0 -- -- 70
2018-04-05 19:00:00 15.6 5 Sur 15 Sur 0 -- -- 72
2018-04-05 18:00:00 15.6 6 Sur 13 Sur 0 -- -- 70
2018-04-05 17:00:00 14.9 8 Sudeste 15 Sudeste 0 -- -- 71
2018-04-05 16:00:00 14.7 9 Sudeste 18 Sudeste 0 -- -- 74
2018-04-05 15:00:00 14.2 9 Sudeste 20 Sudeste 0 -- -- 77
2018-04-05 14:00:00 14.1 11 Sudeste 19 Sudeste 0 -- -- 76
2018-04-05 13:00:00 14.2 9 Sur 21 Sudeste 0 -- -- 73
2018-04-05 12:00:00 13.9 11 Sudeste 20 Sudeste 0 -- -- 74
2018-04-05 11:00:00 13.7 8 Sudeste 14 Sur 0 -- -- 73
2018-04-05 10:00:00 12.3 6 Sur 13 Sur 0 -- -- 77
2018-04-05 09:00:00 7.4 3 Nordeste 14 Oeste 0 -- -- 61
2018-04-05 08:00:00 4.6 5 Noroeste 9 Norte 0 -- -- 48
2018-04-05 07:00:00 5.1 5 Norte 9 Norte 0 -- -- 45
2018-04-05 06:00:00 4.8 6 Norte 10 Norte 0 -- -- 45
2018-04-05 05:00:00 4.8 7 Norte 10 Norte 0 -- -- 49
2018-04-05 04:00:00 5.1 5 Norte 8 Norte 0 -- -- 50
2018-04-05 03:00:00 5.2 5 Noroeste 9 Noroeste 0 -- -- 55
2018-04-05 02:00:00 5.5 5 Norte 9 Norte 0 -- -- 70
2018-04-05 01:00:00 6 5 Norte 8 Norte 0 -- -- 72
2018-04-05 00:00:00 6.2 4 Norte 8 Norte 0 -- -- 61
2018-04-04 23:00:00 6.4 4 Noroeste 8 Norte 0 -- -- 68
2018-04-04 22:00:00 7.6 4 Norte 7 Norte 0 -- -- 83
2018-04-04 21:00:00 10 3 Noroeste 7 Sur 0 -- -- 87
2018-04-04 20:00:00 12.1 3 Sudoeste 13 Este 0 -- -- 90
2018-04-04 19:00:00 13 9 Este 24 Nordeste 0 -- -- 86
2018-04-04 18:00:00 14.4 10 Norte 28 Norte 0 -- -- 79
2018-04-04 17:00:00 13 8 Nordeste 27 Noroeste 0 -- -- 89
2018-04-04 16:00:00 13.1 8 Norte 21 Norte 0 -- -- 84
2018-04-04 15:00:00 13.4 5 Sudeste 19 Noroeste 0 -- -- 83
2018-04-04 14:00:00 13 7 Sudeste 21 Sudeste 0 -- -- 84
2018-04-04 13:00:00 12.4 6 Nordeste 25 Sudeste 0 -- -- 90
2018-04-04 12:00:00 11.5 8 Este 26 Sudeste 0 -- -- 95
2018-04-04 11:00:00 11.8 10 Sudeste 30 Sudeste 0 -- -- 92
2018-04-04 10:00:00 12.2 12 Nordeste 28 Este 0 -- -- 82
2018-04-04 09:00:00 10.8 8 Nordeste 22 Norte 0 -- -- 84
2018-04-04 08:00:00 8.7 6 Norte 22 Norte 0 -- -- 89
2018-04-04 07:00:00 10.1 10 Nordeste 30 Este 0 -- -- 91
2018-04-04 06:00:00 10.2 10 Nordeste 27 Nordeste 0 -- -- 88
2018-04-04 05:00:00 10.1 8 Nordeste 30 Norte 0 -- -- 84
2018-04-04 04:00:00 9.7 8 Nordeste 24 Este 0 -- -- 88
2018-04-04 03:00:00 10.1 9 Este 22 Este 0 -- -- 94
2018-04-04 02:00:00 9.9 9 Este 31 Este 0 -- -- 91
2018-04-04 01:00:00 9.7 5 Este 19 Este 0 -- -- 87
2018-04-04 00:00:00 10.4 4 Este 25 Este 0 -- -- 87
2018-04-03 23:00:00 10.8 7 Norte 29 Noroeste 0 -- -- 81
2018-04-03 22:00:00 10.7 12 Norte 29 Noroeste 0 -- -- 87
2018-04-03 21:00:00 11.6 5 Norte 29 Noroeste 0 -- -- 82
2018-04-03 20:00:00 12.1 11 Noroeste 28 Noroeste 0 -- -- 85
2018-04-03 19:00:00 14.3 7 Sur 22 Noroeste 0 -- -- 73
2018-04-03 18:00:00 15.3 8 Noroeste 24 Noroeste 0 -- -- 70
2018-04-03 17:00:00 14.6 8 Sudeste 21 Sudeste 0 -- -- 81
2018-04-03 16:00:00 14.2 8 Sudeste 26 Sur 0 -- -- 82
2018-04-03 15:00:00 15.5 10 Sudeste 21 Sudeste 0 -- -- 76
2018-04-03 14:00:00 15.5 9 Sudeste 18 Sur 0 -- -- 79
2018-04-03 13:00:00 14.7 9 Sudeste 17 Sudeste 0 -- -- 83
2018-04-03 12:00:00 14.8 9 Sudeste 17 Este 0 -- -- 82
2018-04-03 11:00:00 14.1 7 Sur 13 Sur 0 -- -- 85
2018-04-03 10:00:00 13.3 6 Sur 10 Sur 0 -- -- 81
2018-04-03 09:00:00 8 3 Noroeste 9 Norte 0 -- -- 94
2018-04-03 08:00:00 6 6 Norte 10 Noroeste 0 -- -- 94
2018-04-03 07:00:00 6 6 Norte 9 Norte 0 -- -- 94
2018-04-03 06:00:00 5.8 8 Norte 12 Norte 0 -- -- 92
2018-04-03 05:00:00 6.4 6 Norte 9 Norte 0 -- -- 93
2018-04-03 04:00:00 7.1 5 Noroeste 12 Noroeste 0 -- -- 95
2018-04-03 03:00:00 7.9 4 Norte 10 Norte 0 -- -- 93
2018-04-03 02:00:00 8.7 3 Noroeste 16 Norte 0 -- -- 88
2018-04-03 01:00:00 10.2 3 Norte 13 Oeste 0 -- -- 91
2018-04-03 00:00:00 10.5 2 Sudeste 18 Norte 0 -- -- 92
2018-04-02 23:00:00 10.5 5 Norte 23 Noroeste 0 -- -- 80
2018-04-02 22:00:00 10.6 16 Noroeste 34 Noroeste 0 -- -- 86
2018-04-02 21:00:00 10.8 3 Oeste 14 Sur 0 -- -- 83
2018-04-02 20:00:00 12 7 Sudeste 19 Sur 0 -- -- 85
2018-04-02 19:00:00 12.5 5 Sudoeste 17 Este 0 -- -- 80
2018-04-02 18:00:00 12.9 5 Sudeste 20 Este 0 -- -- 77
2018-04-02 17:00:00 13.1 5 Sur 24 Oeste 0 -- -- 74
2018-04-02 16:00:00 13.5 6 Oeste 21 Oeste 0 -- -- 75
2018-04-02 15:00:00 14.2 5 Noroeste 23 Noroeste 0 -- -- 72
2018-04-02 14:00:00 14 5 Oeste 24 Noroeste 0 -- -- 74
2018-04-02 13:00:00 12.6 6 Nordeste 17 Sur 0 -- -- 80
2018-04-02 12:00:00 12 6 Sudoeste 22 Este 0 -- -- 84
2018-04-02 11:00:00 12 6 Nordeste 15 Este 0 -- -- 85
2018-04-02 10:00:00 11.3 5 Oeste 23 Noroeste 0 -- -- 88
2018-04-02 09:00:00 11.2 6 Nordeste 21 Norte 0 -- -- 87
2018-04-02 08:00:00 10.1 7 Sudeste 28 Noroeste 0 -- -- 91
2018-04-02 07:00:00 10 14 Norte 37 Norte 0 -- -- 89
2018-04-02 06:00:00 10.3 15 Noroeste 41 Noroeste 0 -- -- 91
2018-04-02 05:00:00 10.5 15 Noroeste 39 Noroeste 0.2 -- -- 92
2018-04-02 04:00:00 10.8 16 Noroeste 40 Noroeste 1 -- -- 95
2018-04-02 03:00:00 12.1 14 Noroeste 33 Noroeste 0.8 -- -- 97
2018-04-02 02:00:00 11.8 12 Noroeste 35 Noroeste 0 -- -- 96
2018-04-02 01:00:00 11.3 7 Noroeste 33 Noroeste 0 -- -- 85
2018-04-02 00:00:00 11.1 7 Oeste 21 Oeste 0 -- -- 85
2018-04-01 23:00:00 10.3 5 Norte 27 Norte 0 -- -- 87
2018-04-01 22:00:00 10.3 5 Nordeste 22 Norte 0 -- -- 89
2018-04-01 21:00:00 10.6 6 Nordeste 18 Noroeste 0 -- -- 87
2018-04-01 20:00:00 11.7 7 Sudeste 27 Norte 0 -- -- 84
2018-04-01 19:00:00 13.9 7 Noroeste 17 Noroeste 0 -- -- 73
2018-04-01 18:00:00 14.2 8 Sudeste 27 Nordeste 0 -- -- 78
2018-04-01 17:00:00 14.6 10 Sudeste 19 Sudeste 0 -- -- 75
2018-04-01 16:00:00 14.4 8 Sudeste 16 Sur 0 -- -- 79
2018-04-01 15:00:00 14 9 Sudeste 17 Sudeste 0 -- -- 82
2018-04-01 14:00:00 14.9 10 Sudeste 17 Sudeste 0 -- -- 73
2018-04-01 13:00:00 14.6 7 Noroeste 22 Noroeste 0 -- -- 74
2018-04-01 12:00:00 13 8 Oeste 19 Oeste 0 -- -- 77
2018-04-01 11:00:00 12.1 6 Sudeste 14 Este 0 -- -- 86
2018-04-01 10:00:00 11.2 4 Sudeste 13 Norte 0 -- -- 80
2018-04-01 09:00:00 9.1 3 Sudeste 14 Norte 0 -- -- 94
2018-04-01 08:00:00 5.5 4 Norte 8 Noroeste 0 -- -- 93
2018-04-01 07:00:00 5.7 6 Noroeste 9 Noroeste 0 -- -- 91
2018-04-01 06:00:00 6.7 4 Norte 6 Noroeste 0 -- -- 90
2018-04-01 05:00:00 6.8 2 Norte 6 Nordeste 0 -- -- 90
2018-04-01 04:00:00 7.2 3 Norte 8 Noroeste 0 -- -- 84
2018-04-01 03:00:00 6 5 Norte 8 Norte 0 -- -- 54
2018-04-01 02:00:00 6.4 5 Norte 8 Norte 0 -- -- 47
2018-04-01 01:00:00 6.8 3 Norte 8 Norte 0 -- -- 43
2018-04-01 00:00:00 6 5 Norte 8 Norte 0 -- -- 47
2018-03-31 23:00:00 6.2 4 Norte 9 Oeste 0 -- -- 57
2018-03-31 22:00:00 8.1 5 Noroeste 9 Este 0 -- -- 88
2018-03-31 21:00:00 10.3 2 Noroeste 9 Sur 0 -- -- 75
2018-03-31 20:00:00 12 5 Sudeste 10 Sur 0 -- -- 89
2018-03-31 19:00:00 13 5 Sudeste 12 Este 0 -- -- 86
2018-03-31 18:00:00 14.2 8 Este 23 Sur 0 -- -- 80
2018-03-31 17:00:00 16.9 11 Sur 18 Sudoeste 0 -- -- 68
2018-03-31 16:00:00 17.5 7 Sur 14 Sur 0 -- -- 62
2018-03-31 15:00:00 16.8 9 Sur 16 Sur 0 -- -- 64
2018-03-31 14:00:00 15.2 9 Sur 20 Sudeste 0 -- -- 74
2018-03-31 13:00:00 14.1 9 Sudeste 19 Este 0 -- -- 75
2018-03-31 12:00:00 14.1 9 Sudeste 19 Sudeste 0 -- -- 77
2018-03-31 11:00:00 15 9 Sudeste 14 Sudeste 0 -- -- 67
2018-03-31 10:00:00 14.8 5 Sudeste 10 Sudeste 0 -- -- 59
2018-03-31 09:00:00 9.4 4 Nordeste 11 Noroeste 0 -- -- 51
2018-03-31 08:00:00 7.2 5 Norte 12 Norte 0 -- -- 45
2018-03-31 07:00:00 6.6 7 Norte 10 Norte 0 -- -- 48
2018-03-31 06:00:00 6.7 5 Norte 10 Norte 0 -- -- 52
2018-03-31 05:00:00 7.5 5 Norte 10 Noroeste 0 -- -- 54
2018-03-31 04:00:00 8.1 6 Norte 10 Norte 0 -- -- 65
2018-03-31 03:00:00 9 5 Norte 10 Norte 0 -- -- 68
2018-03-31 02:00:00 9.6 5 Norte 14 Nordeste 0 -- -- 57
2018-03-31 01:00:00 9.2 3 Norte 14 Este 0 -- -- 47
2018-03-31 00:00:00 10.9 9 Nordeste 18 Nordeste 0 -- -- 44
2018-03-30 23:00:00 8.9 6 Nordeste 21 Noroeste 0 -- -- 71
2018-03-30 22:00:00 10.2 12 Norte 31 Noroeste 0 -- -- 78
2018-03-30 21:00:00 10.9 10 Norte 28 Noroeste 0 -- -- 78
2018-03-30 20:00:00 12.4 3 Noroeste 9 Sur 0 -- -- 87
2018-03-30 19:00:00 13.4 3 Sur 12 Sudeste 0 -- -- 86
2018-03-30 18:00:00 13.1 8 Sudeste 21 Este 0 -- -- 83
2018-03-30 17:00:00 13.5 10 Nordeste 31 Nordeste 0 -- -- 83
2018-03-30 16:00:00 14.9 8 Este 19 Este 0 -- -- 79
2018-03-30 15:00:00 14.7 8 Sudeste 16 Sudeste 0 -- -- 84
2018-03-30 14:00:00 13.5 8 Sudeste 20 Este 0 -- -- 89
2018-03-30 13:00:00 13.1 8 Este 29 Nordeste 0 -- -- 87
2018-03-30 12:00:00 14.2 11 Nordeste 25 Nordeste 0 -- -- 78
2018-03-30 11:00:00 16.8 8 Sudeste 14 Sudeste 0 -- -- 70
2018-03-30 10:00:00 16.9 5 Sudoeste 25 Norte 0 -- -- 49
2018-03-30 09:00:00 13.4 10 Norte 22 Norte 0 -- -- 61
2018-03-30 08:00:00 12.5 6 Norte 22 Norte 0 -- -- 51
2018-03-30 07:00:00 14.2 10 Norte 27 Noroeste 0 -- -- 51
2018-03-30 06:00:00 15.4 5 Noroeste 12 Noroeste 0 -- -- 31
2018-03-30 05:00:00 16.8 5 Noroeste 20 Noroeste 0 -- -- 26
2018-03-30 04:00:00 17 9 Norte 24 Noroeste 0 -- -- 24
2018-03-30 03:00:00 17.5 9 Noroeste 27 Noroeste 0 -- -- 24
2018-03-30 02:00:00 17.7 10 Norte 26 Norte 0 -- -- 24
2018-03-30 01:00:00 17.2 8 Norte 23 Norte 0 -- -- 25
2018-03-30 00:00:00 17.3 10 Norte 23 Norte 0 -- -- 25
2018-03-29 23:00:00 17.3 9 Norte 21 Norte 0 -- -- 26
2018-03-29 22:00:00 17.3 9 Norte 21 Norte 0 -- -- 24
2018-03-29 21:00:00 17.5 10 Norte 29 Norte 0 -- -- 24
2018-03-29 20:00:00 18.9 7 Noroeste 18 Noroeste 0 -- -- 28
2018-03-29 19:00:00 21.3 6 Norte 16 Norte 0 -- -- 22
2018-03-29 18:00:00 22.2 6 Este 17 Este 0 -- -- 20
2018-03-29 17:00:00 22.4 6 Este 16 Sudeste 0 -- -- 27
2018-03-29 16:00:00 22.1 8 Este 17 Este 0 -- -- 30
2018-03-29 15:00:00 21.8 8 Este 20 Este 0 -- -- 26
2018-03-29 14:00:00 20.9 11 Este 22 Este 0 -- -- 33
2018-03-29 13:00:00 20.9 9 Este 33 Sudeste 0 -- -- 27
2018-03-29 12:00:00 20.2 10 Este 27 Este 0 -- -- 25
2018-03-29 11:00:00 20.1 7 Nordeste 25 Este 0 -- -- 25
2018-03-29 10:00:00 18.5 9 Nordeste 24 Sudeste 0 -- -- 27
2018-03-29 09:00:00 17.4 8 Nordeste 30 Nordeste 0 -- -- 26
2018-03-29 08:00:00 17.4 8 Nordeste 28 Este 0 -- -- 26
2018-03-29 07:00:00 18 5 Sudeste 30 Sudeste 0 -- -- 23
2018-03-29 06:00:00 18.9 10 Sudeste 36 Sudeste 0 -- -- 19
2018-03-29 05:00:00 19 12 Sudeste 37 Sudeste 0 -- -- 18
2018-03-29 04:00:00 19.2 12 Sudeste 48 Este 0 -- -- 20
2018-03-29 03:00:00 19.4 13 Sudeste 40 Sudeste 0 -- -- 19
2018-03-29 02:00:00 19.2 6 Sudoeste 20 Este 0 -- -- 19
2018-03-29 01:00:00 19.7 10 Oeste 28 Oeste 0 -- -- 18
2018-03-29 00:00:00 18.8 12 Oeste 23 Oeste 0 -- -- 16
2018-03-28 23:00:00 18.1 9 Oeste 23 Nordeste 0 -- -- 17
2018-03-28 22:00:00 17.1 7 Norte 18 Norte 0 -- -- 21
2018-03-28 21:00:00 15.8 5 Norte 13 Norte 0 -- -- 36
2018-03-28 20:00:00 16.9 3 Norte 10 Sudeste 0 -- -- 46
2018-03-28 19:00:00 20.5 4 Este 12 Este 0 -- -- 38
2018-03-28 18:00:00 20.1 4 Nordeste 15 Este 0 -- -- 39
2018-03-28 17:00:00 20.7 6 Nordeste 14 Este 0 -- -- 33
2018-03-28 16:00:00 20.1 5 Este 14 Sudeste 0 -- -- 31
2018-03-28 15:00:00 21 7 Este 14 Sudeste 0 -- -- 40
2018-03-28 14:00:00 20.8 7 Este 15 Sudeste 0 -- -- 35
2018-03-28 13:00:00 18.6 8 Este 16 Este 0 -- -- 46
2018-03-28 12:00:00 18.4 8 Este 18 Sudeste 0 -- -- 43
2018-03-28 11:00:00 17.8 6 Nordeste 22 Este 0 -- -- 44
2018-03-28 10:00:00 18 6 Este 17 Este 0 -- -- 39
2018-03-28 09:00:00 14.8 4 Nordeste 16 Este 0 -- -- 53
2018-03-28 08:00:00 13.2 4 Nordeste 15 Este 0 -- -- 54
2018-03-28 07:00:00 11.6 4 Norte 10 Norte 0 -- -- 59
2018-03-28 06:00:00 11.5 6 Norte 12 Norte 0 -- -- 61
2018-03-28 05:00:00 11.6 6 Norte 11 Norte 0 -- -- 65
2018-03-28 04:00:00 12.7 4 Norte 10 Nordeste 0 -- -- 63
2018-03-28 03:00:00 14.8 5 Nordeste 14 Este 0 -- -- 53
2018-03-28 02:00:00 16 4 Este 17 Nordeste 0 -- -- 49
2018-03-28 01:00:00 15.9 8 Este 19 Nordeste 0 -- -- 44
2018-03-28 00:00:00 15.7 5 Norte 14 Nordeste 0 -- -- 43
2018-03-27 23:00:00 15.3 5 Norte 12 Noroeste 0 -- -- 39
2018-03-27 22:00:00 15 4 Norte 13 Norte 0 -- -- 33
2018-03-27 21:00:00 14.6 7 Norte 18 Norte 0 -- -- 39
2018-03-27 20:00:00 15.5 4 Norte 13 Norte 0 -- -- 41
2018-03-27 19:00:00 16.6 4 Sur 19 Sur 0 -- -- 72
2018-03-27 18:00:00 20.9 3 Nordeste 20 Nordeste 0 -- -- 19
2018-03-27 17:00:00 13.9 4 Sudoeste 16 Nordeste 0 -- -- 83
2018-03-27 16:00:00 14 5 Este 19 Sudeste 0 -- -- 83
2018-03-27 15:00:00 19.2 11 Sur 19 Sur 0 -- -- 56
2018-03-27 14:00:00 17.7 7 Sudeste 22 Sur 0 -- -- 65
2018-03-27 13:00:00 18.1 8 Sur 18 Sur 0 -- -- 64
2018-03-27 12:00:00 15.6 7 Sur 14 Oeste 0 -- -- 73
2018-03-27 11:00:00 14.8 5 Sur 18 Sudeste 0 -- -- 75
2018-03-27 10:00:00 13.7 5 Norte 9 Noroeste 0 -- -- 66
2018-03-27 09:00:00 11.3 5 Norte 10 Norte 0 -- -- 65
2018-03-27 08:00:00 8.6 4 Norte 13 Nordeste 0 -- -- 67
2018-03-27 07:00:00 8.7 8 Norte 11 Norte 0 -- -- 70
2018-03-27 06:00:00 8.9 7 Norte 14 Norte 0 -- -- 69
2018-03-27 05:00:00 9.3 5 Norte 11 Noroeste 0 -- -- 72
2018-03-27 04:00:00 10.6 5 Norte 28 Noroeste 0 -- -- 67
2018-03-27 03:00:00 10.8 14 Noroeste 31 Noroeste 0 -- -- 75
2018-03-27 02:00:00 11.1 10 Norte 21 Norte 0 -- -- 63
2018-03-27 01:00:00 12.1 8 Norte 28 Noroeste 0 -- -- 56
2018-03-27 00:00:00 12.1 12 Norte 33 Norte 0 -- -- 60
2018-03-26 23:00:00 12.5 10 Norte 24 Noroeste 0 -- -- 52
2018-03-26 22:00:00 11.4 3 Este 18 Nordeste 0 -- -- 81
2018-03-26 21:00:00 13.3 9 Norte 22 Norte 0 -- -- 39
2018-03-26 20:00:00 12.5 6 Norte 18 Norte 0 -- -- 56
2018-03-26 19:00:00 14.4 7 Sudeste 15 Norte 0 -- -- 73
2018-03-26 18:00:00 14.2 8 Sudeste 18 Sur 0 -- -- 74
2018-03-26 17:00:00 17.1 6 Norte 19 Este 0 -- -- 60
2018-03-26 16:00:00 15.4 11 Nordeste 34 Norte 0 -- -- 66
2018-03-26 15:00:00 16.2 15 Norte 32 Norte 0 -- -- 61
2018-03-26 14:00:00 15.4 13 Nordeste 32 Norte 0 -- -- 66
2018-03-26 13:00:00 14.2 12 Este 30 Este 0 -- -- 68
2018-03-26 12:00:00 16.6 9 Nordeste 39 Este 0 -- -- 55
2018-03-26 11:00:00 14.6 14 Nordeste 44 Oeste 0 -- -- 47
2018-03-26 10:00:00 12 11 Nordeste 35 Noroeste 0 -- -- 76
2018-03-26 09:00:00 11.8 9 Este 44 Norte 0 -- -- 76
2018-03-26 08:00:00 11.3 19 Noroeste 44 Noroeste 0 -- -- 94
2018-03-26 07:00:00 11.7 12 Noroeste 40 Noroeste 0 -- -- 92
2018-03-26 06:00:00 11.2 9 Este 48 Norte 0 -- -- 93
2018-03-26 05:00:00 11 11 Nordeste 40 Norte 0 -- -- 89
2018-03-26 04:00:00 10.6 17 Norte 41 Norte 0 -- -- 93
2018-03-26 03:00:00 10.9 12 Este 31 Este 0 -- -- 89
2018-03-26 02:00:00 10.6 10 Norte 36 Norte 0 -- -- 88
2018-03-26 01:00:00 10.7 10 Norte 34 Norte 0 -- -- 86
2018-03-26 00:00:00 12 12 Nordeste 35 Norte 0 -- -- 74
2018-03-25 23:00:00 11.5 9 Nordeste 36 Norte 0 -- -- 71
2018-03-25 22:00:00 11.4 13 Norte 42 Noroeste 0 -- -- 77
2018-03-25 21:00:00 12.8 13 Norte 38 Norte 0 -- -- 60
2018-03-25 20:00:00 14.4 13 Nordeste 35 Norte 0 -- -- 51
2018-03-25 19:00:00 15.7 12 Este 35 Norte 0 -- -- 52
2018-03-25 18:00:00 16.1 10 Nordeste 30 Este 0 -- -- 51
2018-03-25 17:00:00 15 11 Sudeste 26 Sudeste 0 -- -- 72
2018-03-25 16:00:00 14.4 12 Este 33 Norte 0 -- -- 71
2018-03-25 15:00:00 15 12 Nordeste 32 Este 0 -- -- 72
2018-03-25 14:00:00 15.3 9 Sudeste 20 Sudeste 0 -- -- 72
2018-03-25 13:00:00 15.5 12 Sudeste 29 Nordeste 0 -- -- 70
2018-03-25 12:00:00 15.6 11 Este 31 Nordeste 0 -- -- 61
2018-03-25 11:00:00 15.8 12 Nordeste 38 Sudeste 0 -- -- 54
2018-03-25 10:00:00 15 12 Nordeste 31 Nordeste 0 -- -- 54
2018-03-25 09:00:00 13.3 8 Norte 44 Nordeste 0 -- -- 54
2018-03-25 08:00:00 14.7 15 Norte 44 Norte 0 -- -- 46
2018-03-25 07:00:00 15.6 18 Norte 39 Este 0 -- -- 42
2018-03-25 06:00:00 13.1 8 Este 33 Norte 0 -- -- 51
2018-03-25 05:00:00 12.3 19 Norte 42 Norte 0 -- -- 35
2018-03-25 04:00:00 14.3 12 Norte 39 Nordeste 0 -- -- 48
2018-03-25 00:00:00 13.3 9 Norte 29 Norte 0 -- -- 48
2018-03-24 23:00:00 12.5 7 Este 26 Norte 0 -- -- 63
2018-03-24 22:00:00 12.6 10 Este 28 Este 0 -- -- 64
2018-03-24 21:00:00 13.2 7 Este 20 Este 0 -- -- 59
2018-03-24 20:00:00 11.8 3 Este 13 Nordeste 0 -- -- 67
2018-03-24 19:00:00 12.9 6 Nordeste 26 Noroeste 0 -- -- 77
2018-03-24 18:00:00 14 8 Norte 30 Oeste 0 -- -- 75
2018-03-24 17:00:00 15.5 7 Nordeste 23 Este 0 -- -- 65
2018-03-24 16:00:00 15.5 5 Nordeste 19 Este 0 -- -- 66
2018-03-24 15:00:00 15 8 Sudeste 19 Este 0 -- -- 73
2018-03-24 14:00:00 14.8 12 Este 27 Este 0 -- -- 70
2018-03-24 13:00:00 16.1 10 Nordeste 35 Norte 0 -- -- 64
2018-03-24 12:00:00 15.1 8 Norte 26 Noroeste 0 -- -- 71
2018-03-24 11:00:00 14.5 9 Este 29 Sudeste 0 -- -- 75
2018-03-24 10:00:00 12.2 12 Este 24 Nordeste 0 -- -- 84
2018-03-24 09:00:00 11.3 12 Nordeste 26 Este 0 -- -- 85
2018-03-24 08:00:00 12 8 Norte 23 Oeste 0 -- -- 82
2018-03-24 07:00:00 12.5 9 Nordeste 21 Este 0 -- -- 43
2018-03-24 06:00:00 10.9 4 Nordeste 18 Este 0 -- -- 44
2018-03-24 05:00:00 11.7 8 Este 20 Este 0 -- -- 43
2018-03-24 04:00:00 9.5 5 Norte 12 Norte 0 -- -- 45
2018-03-24 03:00:00 10.4 6 Norte 14 Norte 0 -- -- 53
2018-03-24 02:00:00 11.9 8 Norte 28 Norte 0 -- -- 47
2018-03-24 01:00:00 11.2 11 Norte 24 Norte 0 -- -- 64
2018-03-24 00:00:00 10.9 4 Nordeste 21 Nordeste 0 -- -- 69
2018-03-23 23:00:00 12.8 8 Nordeste 24 Nordeste 0 -- -- 49
2018-03-23 22:00:00 12.4 9 Nordeste 29 Noroeste 0 -- -- 39
2018-03-23 21:00:00 12.6 8 Norte 27 Norte 0 -- -- 19
2018-03-23 20:00:00 12 7 Norte 19 Norte 0 -- -- 9
2018-03-23 19:00:00 14.4 3 Nordeste 15 Este 0 -- -- 15
2018-03-23 18:00:00 16.7 5 Nordeste 20 Norte 0 -- -- 12
2018-03-23 17:00:00 17.1 6 Este 19 Este 0 -- -- 25
2018-03-23 16:00:00 18.1 9 Este 23 Nordeste 0 -- -- 21
2018-03-23 15:00:00 17.4 8 Sudeste 17 Sudeste 0 -- -- 56
2018-03-23 14:00:00 16.9 11 Sudeste 18 Sudeste 0 -- -- 54
2018-03-23 13:00:00 16.5 11 Sudeste 21 Sudeste 0 -- -- 63
2018-03-23 12:00:00 17.5 8 Este 15 Sudeste 0 -- -- 41
2018-03-23 11:00:00 16.8 8 Este 17 Este 0 -- -- 23
2018-03-23 10:00:00 14.3 5 Sudeste 13 Sudeste 0 -- -- 70
2018-03-23 09:00:00 13.9 3 Sudoeste 8 Sudeste 0 -- -- 58
2018-03-23 08:00:00 8.5 5 Norte 14 Norte 0 -- -- 40
2018-03-23 07:00:00 7.3 7 Norte 16 Noroeste 0 -- -- 28
2018-03-23 06:00:00 6.8 7 Norte 14 Norte 0 -- -- 35
2018-03-23 05:00:00 7 7 Norte 11 Norte 0 -- -- 40
2018-03-23 04:00:00 8 5 Norte 14 Norte 0 -- -- 33
2018-03-23 03:00:00 8.3 5 Norte 19 Nordeste 0 -- -- 34
2018-03-23 02:00:00 8.8 6 Norte 15 Norte 0 -- -- 30
2018-03-23 01:00:00 9.5 6 Norte 19 Norte 0 -- -- 28
2018-03-23 00:00:00 8.5 8 Norte 17 Norte 0 -- -- 49